Pittsburg, NH

2:32 PM EDT on April 26, 2015 (GMT -0400)
First Connecticut Lake | | Change Station
CLOSE
Current Station
Personal Weather Station
Location: Pittsburg, NH
Elevation: 1854 ft
Nearby Weather Stations

Elev 1854 ft 45.11 °N, 71.29 °W | Updated 20 seconds ago

Overcast
Overcast
37.8 °F
Feels Like 38 °F
N
0.0
Wind Variable Wind from West
Gusts 0.0 mph

Today
High -- | Low -- °F
--% Chance of Precip.
Yesterday
High -- | Low -- °F
Precip. -- in
5:42 AM 7:44 PM
First Quarter, 57% visible
Pressure 29.68 in
Visibility 10.0 miles
Clouds Scattered Clouds 2600 ft
Mostly Cloudy 3000 ft
Overcast 4000 ft
Windchill 38 °F
Dew Point 36 °F
Humidity 92%
Rainfall 0.40 in
Snow Depth Not available.
UV 1.6 out of 12
Pollen 8.40 out of 12
Air Quality Not available.
Flu Activity Regional
METAR KBML 261752Z AUTO VRB05KT 10SM SCT026 BKN030 OVC040 08/01 A2965 RMK AO2 RAB1655E04 SLP049 P0000 60000 T00830006 10089 20044 58001

More Conditions Fewer Conditions

Pressure 29.68 in
Visibility 10.0 miles
Clouds Scattered Clouds 2600 ft
Mostly Cloudy 3000 ft
Overcast 4000 ft
Windchill 38 °F
Dew Point 36 °F
Humidity 92%
Rainfall 0.40 in
Snow Depth Not available.
UV 1.6 out of 12
Pollen 8.40 out of 12
Air Quality Not available.
Flu Activity Regional
METAR KBML 261752Z AUTO VRB05KT 10SM SCT026 BKN030 OVC040 08/01 A2965 RMK AO2 RAB1655E04 SLP049 P0000 60000 T00830006 10089 20044 58001

More Conditions Fewer Conditions

The full scope of the disaster following a powerful 7.8-magnitude earthquake in Nepal may not come into view for days, but global charities are already sending emergency aid. Click to see how you can help.

10-Day Weather Forecast

Almanac

Astronomy

Apr. 26, 2015 Rise Set
Actual Time
Civil Twilight
Nautical Twilight
Astronomical Twilight
Moon
Length of Visible Light
Length of Day
Tomorrow will be .
, % of the Moon is Illuminated

Today's Extremes

State Highs State Lows

Community

WunderPhotos

Upload Photos

1,817,083 photos uploaded!

WunderBlogs® & News

Nearby

Air Quality

  Air Quality AQ Index Pollutant
Not available.

Snow Depth

Station Depth Elevation

Earthquake Activity

City Distance Mag. Time & Date
Minimum magnitude displayed is 2.5.

Coastal Water Temperatures

Place Temperature

Stations

Nearby Weather Stations

Station Location Temp. Windchill Dew Point Humidity Wind Precip. Elev Updated Type